createdAt,value
2023-04-19T00:01:01.918Z,7.80
2023-04-19T00:02:04.201Z,7.80
2023-04-19T00:03:07.259Z,7.80
2023-04-19T00:04:09.838Z,7.80
2023-04-19T00:05:13.880Z,7.80
2023-04-19T00:06:17.592Z,7.80
2023-04-19T00:07:20.488Z,7.80
2023-04-19T00:08:22.664Z,7.70
2023-04-19T00:09:25.274Z,7.70
2023-04-19T00:10:27.617Z,7.70
2023-04-19T00:11:29.816Z,7.70
2023-04-19T00:12:31.958Z,7.70
2023-04-19T00:13:34.139Z,7.70
2023-04-19T00:14:36.288Z,7.70
2023-04-19T00:15:38.685Z,7.70
2023-04-19T00:16:41.241Z,7.70
2023-04-19T00:17:43.541Z,7.70
2023-04-19T00:18:46.822Z,7.60
2023-04-19T00:19:48.967Z,7.70
2023-04-19T00:20:51.279Z,7.60
2023-04-19T00:21:54.841Z,7.60
2023-04-19T00:22:59.150Z,7.60
2023-04-19T00:24:03.192Z,7.60
2023-04-19T00:25:06.193Z,7.60
2023-04-19T00:26:08.620Z,7.60
2023-04-19T00:27:10.775Z,7.60
2023-04-19T00:28:12.900Z,7.50
2023-04-19T00:29:15.061Z,7.50
2023-04-19T00:30:17.260Z,7.50
2023-04-19T00:31:19.527Z,7.50
2023-04-19T00:32:21.674Z,7.50
2023-04-19T00:33:25.796Z,7.50
2023-04-19T00:34:27.973Z,7.50
2023-04-19T00:35:30.525Z,7.50
2023-04-19T00:36:32.652Z,7.50
2023-04-19T00:37:36.265Z,7.50
2023-04-19T00:38:38.432Z,7.50
2023-04-19T00:39:40.770Z,7.50
2023-04-19T00:40:43.014Z,7.50
2023-04-19T00:41:45.491Z,7.50
2023-04-19T00:42:47.708Z,7.40
2023-04-19T00:43:49.828Z,7.40
2023-04-19T00:44:51.981Z,7.40
2023-04-19T00:45:54.221Z,7.40
2023-04-19T00:46:57.239Z,7.40
2023-04-19T00:48:00.395Z,7.40
2023-04-19T00:49:02.720Z,7.40
2023-04-19T00:50:06.087Z,7.40
2023-04-19T00:51:10.559Z,7.40
2023-04-19T00:52:13.096Z,7.40
2023-04-19T00:53:16.742Z,7.30
2023-04-19T00:54:19.617Z,7.40
2023-04-19T00:55:22.813Z,7.40
2023-04-19T00:56:27.660Z,7.30
2023-04-19T00:57:30.977Z,7.30
2023-04-19T00:58:33.657Z,7.30
2023-04-19T00:59:35.942Z,7.30
2023-04-19T01:00:38.196Z,7.30
2023-04-19T01:01:40.486Z,7.30
2023-04-19T01:02:43.098Z,7.30
2023-04-19T01:03:47.322Z,7.30
2023-04-19T01:04:49.805Z,7.30
2023-04-19T01:05:52.021Z,7.20
2023-04-19T01:06:54.225Z,7.20
2023-04-19T01:07:56.458Z,7.20
2023-04-19T01:08:59.994Z,7.20
2023-04-19T01:10:02.265Z,7.20
2023-04-19T01:11:04.446Z,7.20
2023-04-19T01:12:07.010Z,7.20
2023-04-19T01:13:09.226Z,7.20
2023-04-19T01:14:11.450Z,7.20
2023-04-19T01:15:13.628Z,7.10
2023-04-19T01:16:16.056Z,7.10
2023-04-19T01:17:18.917Z,7.10
2023-04-19T01:18:21.923Z,7.20
2023-04-19T01:19:24.101Z,7.10
2023-04-19T01:20:26.338Z,7.10
2023-04-19T01:21:30.648Z,7.10
2023-04-19T01:22:34.597Z,7.10
2023-04-19T01:23:39.049Z,7.10
2023-04-19T01:24:41.260Z,7.10
2023-04-19T01:25:43.428Z,7.10
2023-04-19T01:26:45.674Z,7.10
2023-04-19T01:27:50.120Z,7.00
2023-04-19T01:28:52.262Z,7.00
2023-04-19T01:29:54.485Z,7.00
2023-04-19T01:30:56.847Z,7.00
2023-04-19T01:33:09.352Z,7.00
2023-04-19T01:34:11.545Z,7.00
2023-04-19T01:35:13.778Z,7.00
2023-04-19T01:36:15.955Z,7.00
2023-04-19T01:37:18.179Z,7.00
2023-04-19T01:38:21.915Z,7.00
2023-04-19T01:39:26.168Z,7.00
2023-04-19T01:40:28.553Z,7.00
2023-04-19T01:41:31.869Z,7.00
2023-04-19T01:42:34.066Z,7.00
2023-04-19T01:43:36.235Z,7.00
2023-04-19T01:44:38.437Z,7.00
2023-04-19T01:45:40.814Z,6.90
2023-04-19T01:46:43.025Z,7.00
2023-04-19T01:47:45.307Z,6.90
2023-04-19T01:48:47.518Z,6.90
2023-04-19T01:49:49.653Z,6.90
2023-04-19T01:50:51.833Z,6.90
2023-04-19T01:51:54.037Z,6.90
2023-04-19T01:52:56.241Z,6.90
2023-04-19T01:53:59.830Z,6.90
2023-04-19T01:55:02.062Z,6.90
2023-04-19T01:56:04.502Z,6.90
2023-04-19T01:57:06.654Z,6.90
2023-04-19T01:58:09.858Z,6.90
2023-04-19T01:59:12.001Z,6.80
2023-04-19T02:00:15.330Z,6.80
2023-04-19T02:01:17.507Z,6.80
2023-04-19T02:02:19.771Z,6.80
2023-04-19T02:03:22.114Z,6.80
2023-04-19T02:04:24.448Z,6.80
2023-04-19T02:05:26.616Z,6.80
2023-04-19T02:06:28.855Z,6.80
2023-04-19T02:07:33.233Z,6.80
2023-04-19T02:08:35.402Z,6.80
2023-04-19T02:09:39.464Z,6.70
2023-04-19T02:10:41.588Z,6.70
2023-04-19T02:11:43.770Z,6.70
2023-04-19T02:12:45.921Z,6.70
2023-04-19T02:13:49.623Z,6.70
2023-04-19T02:14:51.930Z,6.70
2023-04-19T02:15:54.128Z,6.70
2023-04-19T02:16:56.264Z,6.70
2023-04-19T02:18:00.565Z,6.70
2023-04-19T02:19:04.157Z,6.70
2023-04-19T02:20:10.914Z,6.60
2023-04-19T02:21:13.060Z,6.60
2023-04-19T02:22:15.232Z,6.60
2023-04-19T02:23:17.384Z,6.60
2023-04-19T02:24:19.508Z,6.60
2023-04-19T02:25:22.995Z,6.60
2023-04-19T02:26:25.150Z,6.60
2023-04-19T02:27:27.262Z,6.60
2023-04-19T02:28:29.452Z,6.60
2023-04-19T02:29:31.565Z,6.60
2023-04-19T02:30:33.674Z,6.50
2023-04-19T02:31:36.673Z,6.50
2023-04-19T02:32:38.944Z,6.50
2023-04-19T02:33:41.142Z,6.50
2023-04-19T02:34:43.403Z,6.50
2023-04-19T02:35:45.489Z,6.50
2023-04-19T02:36:47.617Z,6.50
2023-04-19T02:37:49.748Z,6.40
2023-04-19T02:38:51.821Z,6.40
2023-04-19T02:39:53.937Z,6.50
2023-04-19T02:40:57.511Z,6.40
2023-04-19T02:41:59.692Z,6.40
2023-04-19T02:43:01.861Z,6.40
2023-04-19T02:44:04.505Z,6.40
2023-04-19T02:45:08.120Z,6.40
2023-04-19T02:46:11.280Z,6.40
2023-04-19T02:47:13.792Z,6.40
2023-04-19T02:48:15.993Z,6.40
2023-04-19T02:49:18.733Z,6.40
2023-04-19T02:50:21.076Z,6.40
2023-04-19T02:51:23.214Z,6.30
2023-04-19T02:52:26.826Z,6.30
2023-04-19T02:53:29.046Z,6.30
2023-04-19T02:54:31.184Z,6.30
2023-04-19T02:55:33.573Z,6.30
2023-04-19T02:56:37.053Z,6.30
2023-04-19T02:57:39.266Z,6.30
2023-04-19T02:58:41.538Z,6.30
2023-04-19T02:59:43.706Z,6.20
2023-04-19T03:00:45.825Z,6.20
2023-04-19T03:01:47.995Z,6.20
2023-04-19T03:02:50.212Z,6.20
2023-04-19T03:03:52.571Z,6.20
2023-04-19T03:04:55.494Z,6.20
2023-04-19T03:05:57.949Z,6.20
2023-04-19T03:07:00.288Z,6.20
2023-04-19T03:08:02.389Z,6.20
2023-04-19T03:09:04.650Z,6.20
2023-04-19T03:10:08.550Z,6.20
2023-04-19T03:11:11.696Z,6.10
2023-04-19T03:12:15.280Z,6.20
2023-04-19T03:13:17.414Z,6.20
2023-04-19T03:14:19.633Z,6.10
2023-04-19T03:15:22.315Z,6.10
2023-04-19T03:16:24.676Z,6.10
2023-04-19T03:17:26.817Z,6.10
2023-04-19T03:18:29.776Z,6.10
2023-04-19T03:19:32.029Z,6.10
2023-04-19T03:20:34.445Z,6.10
2023-04-19T03:21:36.620Z,6.10
2023-04-19T03:22:39.388Z,6.10
2023-04-19T03:23:41.524Z,6.10
2023-04-19T03:24:43.742Z,6.00
2023-04-19T03:25:46.463Z,6.00
2023-04-19T03:26:48.764Z,6.00
2023-04-19T03:27:52.305Z,6.00
2023-04-19T03:28:54.493Z,6.00
2023-04-19T03:29:56.968Z,6.00
2023-04-19T03:30:59.377Z,6.00
2023-04-19T03:32:01.550Z,6.00
2023-04-19T03:33:03.987Z,6.00
2023-04-19T03:34:06.155Z,6.00
2023-04-19T03:35:09.430Z,6.00
2023-04-19T03:36:11.996Z,6.00
2023-04-19T03:37:14.171Z,6.00
2023-04-19T03:38:16.430Z,6.00
2023-04-19T03:39:18.600Z,6.00
2023-04-19T03:40:21.362Z,6.00
2023-04-19T03:41:25.407Z,6.00
2023-04-19T03:42:29.030Z,6.00
2023-04-19T03:43:32.955Z,6.00
2023-04-19T03:44:35.329Z,6.00
2023-04-19T03:45:37.616Z,6.00
2023-04-19T03:46:39.807Z,6.00
2023-04-19T03:47:42.149Z,6.00
2023-04-19T03:48:44.806Z,6.00
2023-04-19T03:49:46.938Z,6.00
2023-04-19T03:50:49.123Z,6.00
2023-04-19T03:51:53.736Z,6.00
2023-04-19T03:52:55.929Z,6.00
2023-04-19T03:53:58.104Z,5.90
2023-04-19T03:55:00.478Z,6.00
2023-04-19T03:56:02.766Z,5.90
2023-04-19T03:57:05.936Z,5.90
2023-04-19T03:58:08.242Z,5.90
2023-04-19T03:59:11.867Z,5.90
2023-04-19T04:00:14.915Z,5.90
2023-04-19T04:01:21.369Z,5.90
2023-04-19T04:02:25.992Z,6.00
2023-04-19T04:03:28.619Z,5.90
2023-04-19T04:04:31.274Z,5.90
2023-04-19T04:05:33.749Z,5.90
2023-04-19T04:06:36.194Z,6.00
2023-04-19T04:07:38.327Z,5.90
2023-04-19T04:08:40.596Z,5.90
2023-04-19T04:09:42.798Z,5.90
2023-04-19T04:10:45.012Z,5.90
2023-04-19T04:11:47.517Z,6.00
2023-04-19T04:12:49.841Z,6.00
2023-04-19T04:13:52.088Z,6.00
2023-04-19T04:14:55.720Z,6.00
2023-04-19T04:15:57.938Z,5.90
2023-04-19T04:17:00.223Z,5.90
2023-04-19T04:18:02.487Z,6.00
2023-04-19T04:19:04.807Z,6.00
2023-04-19T04:20:08.969Z,6.00
2023-04-19T04:21:11.258Z,6.00
2023-04-19T04:22:13.446Z,6.00
2023-04-19T04:23:16.602Z,6.00
2023-04-19T04:24:20.344Z,6.00
2023-04-19T04:25:23.316Z,6.00
2023-04-19T04:26:25.735Z,6.10
2023-04-19T04:27:27.917Z,6.10
2023-04-19T04:28:30.971Z,6.10
2023-04-19T04:29:33.556Z,6.10
2023-04-19T04:30:38.740Z,6.10
2023-04-19T04:31:41.101Z,6.10
2023-04-19T04:32:43.434Z,6.10
2023-04-19T04:33:48.174Z,6.10
2023-04-19T04:34:50.479Z,6.20
2023-04-19T04:35:53.303Z,6.10
2023-04-19T04:36:55.935Z,6.10
2023-04-19T04:38:01.968Z,6.20
2023-04-19T04:39:06.722Z,6.20
2023-04-19T04:40:10.070Z,6.20
2023-04-19T04:41:12.570Z,6.20
2023-04-19T04:42:39.226Z,6.20
2023-04-19T04:43:41.561Z,6.30
2023-04-19T04:44:45.381Z,6.20
2023-04-19T04:45:52.218Z,6.30
2023-04-19T04:46:54.558Z,6.30
2023-04-19T04:48:01.655Z,6.30
2023-04-19T04:49:07.881Z,6.30
2023-04-19T04:50:10.947Z,6.30
2023-04-19T04:51:16.361Z,6.40
2023-04-19T04:52:21.766Z,6.40
2023-04-19T04:53:33.626Z,6.40
2023-04-19T04:54:36.272Z,6.40
2023-04-19T04:55:38.567Z,6.50
2023-04-19T04:56:40.976Z,6.50
2023-04-19T04:57:43.194Z,6.50
2023-04-19T04:58:45.466Z,6.50
2023-04-19T04:59:48.308Z,6.50
2023-04-19T05:00:52.098Z,6.60
2023-04-19T05:01:56.186Z,6.60
2023-04-19T05:02:59.091Z,6.60
2023-04-19T05:04:01.653Z,6.70
2023-04-19T05:05:04.177Z,6.70
2023-04-19T05:06:07.174Z,6.70
2023-04-19T05:07:18.688Z,6.80
2023-04-19T05:08:23.263Z,6.80
2023-04-19T05:09:29.363Z,6.80
2023-04-19T05:10:31.762Z,6.80
2023-04-19T05:11:37.070Z,6.90
2023-04-19T05:12:45.230Z,6.90
2023-04-19T05:13:47.398Z,6.90
2023-04-19T05:14:49.522Z,6.90
2023-04-19T05:15:53.088Z,7.00
2023-04-19T05:16:55.285Z,7.00
2023-04-19T05:17:57.523Z,7.00
2023-04-19T05:19:01.745Z,7.00
2023-04-19T05:20:05.915Z,7.10
2023-04-19T05:21:10.461Z,7.10
2023-04-19T05:22:13.275Z,7.10
2023-04-19T05:23:15.822Z,7.20
2023-04-19T05:24:18.305Z,7.20
2023-04-19T05:25:20.654Z,7.20
2023-04-19T05:26:23.052Z,7.30
2023-04-19T05:27:25.246Z,7.30
2023-04-19T05:28:29.852Z,7.30
2023-04-19T05:29:32.504Z,7.40
2023-04-19T05:30:34.682Z,7.40
2023-04-19T05:31:38.304Z,7.40
2023-04-19T05:32:40.570Z,7.40
2023-04-19T05:33:42.800Z,7.50
2023-04-19T05:34:45.121Z,7.50
2023-04-19T05:35:47.224Z,7.50
2023-04-19T05:36:49.335Z,7.50
2023-04-19T05:37:51.784Z,7.60
2023-04-19T05:38:53.931Z,7.60
2023-04-19T05:39:56.133Z,7.60
2023-04-19T05:40:58.323Z,7.70
2023-04-19T05:42:00.565Z,7.70
2023-04-19T05:43:02.702Z,7.70
2023-04-19T05:44:05.398Z,7.70
2023-04-19T05:45:08.733Z,7.80
2023-04-19T05:46:10.987Z,7.80
2023-04-19T05:47:14.518Z,7.80
2023-04-19T05:48:16.593Z,7.80
2023-04-19T05:49:18.704Z,7.80
2023-04-19T05:50:21.287Z,7.80
2023-04-19T05:51:23.378Z,7.90
2023-04-19T05:52:25.685Z,7.90
2023-04-19T05:53:28.510Z,8.00
2023-04-19T05:54:34.555Z,8.00
2023-04-19T05:55:36.657Z,8.00
2023-04-19T05:56:38.949Z,8.00
2023-04-19T05:57:41.657Z,8.10
2023-04-19T05:58:43.790Z,8.10
2023-04-19T05:59:45.985Z,8.20
2023-04-19T06:00:49.027Z,8.20
2023-04-19T06:01:51.259Z,8.30
2023-04-19T06:02:54.899Z,8.30
2023-04-19T06:03:59.322Z,8.30
2023-04-19T06:05:10.417Z,8.40
2023-04-19T06:06:13.354Z,8.40
2023-04-19T06:07:27.273Z,8.40
2023-04-19T06:08:32.813Z,8.40
2023-04-19T06:09:34.981Z,8.40
2023-04-19T06:10:51.831Z,8.50
2023-04-19T06:11:58.034Z,8.50
2023-04-19T06:13:00.170Z,8.50
2023-04-19T06:14:02.338Z,8.50
2023-04-19T06:15:05.763Z,8.60
2023-04-19T06:16:09.345Z,8.70
2023-04-19T06:17:11.579Z,8.80
2023-04-19T06:18:19.505Z,8.90
2023-04-19T06:19:22.427Z,9.00
2023-04-19T06:20:24.650Z,9.00
2023-04-19T06:21:27.088Z,9.00
2023-04-19T06:22:29.164Z,8.90
2023-04-19T06:23:31.252Z,8.90
2023-04-19T06:24:35.313Z,8.90
2023-04-19T06:25:37.580Z,8.90
2023-04-19T06:26:39.709Z,8.90
2023-04-19T06:27:41.892Z,8.90
2023-04-19T06:28:43.992Z,8.90
2023-04-19T06:29:46.180Z,8.90
2023-04-19T06:30:48.509Z,8.90
2023-04-19T06:31:50.764Z,8.90
2023-04-19T06:32:53.033Z,8.90
2023-04-19T06:33:56.631Z,8.90
2023-04-19T06:34:58.909Z,8.90
2023-04-19T06:36:01.440Z,9.00
2023-04-19T06:37:04.085Z,9.00
2023-04-19T06:38:06.508Z,9.00
2023-04-19T06:39:08.574Z,9.00
2023-04-19T06:40:11.556Z,9.00
2023-04-19T06:41:13.718Z,9.10
2023-04-19T06:42:15.863Z,9.10
2023-04-19T06:43:18.054Z,9.10
2023-04-19T06:44:20.739Z,9.10
2023-04-19T06:45:22.903Z,9.10
2023-04-19T06:46:25.236Z,9.20
2023-04-19T06:47:27.597Z,9.20
2023-04-19T06:48:29.820Z,9.30
2023-04-19T06:49:33.340Z,9.30
2023-04-19T06:50:35.560Z,9.30
2023-04-19T06:51:39.319Z,9.30
2023-04-19T06:52:41.489Z,9.40
2023-04-19T06:53:44.724Z,9.30
2023-04-19T06:54:48.741Z,9.30
2023-04-19T06:55:57.705Z,9.40
2023-04-19T06:56:59.883Z,9.40
2023-04-19T06:58:02.092Z,9.40
2023-04-19T06:59:04.200Z,9.50
2023-04-19T07:00:07.985Z,9.50
2023-04-19T07:01:10.120Z,9.50
2023-04-19T07:02:12.474Z,9.60
2023-04-19T07:03:14.799Z,9.60
2023-04-19T07:04:18.325Z,9.70
2023-04-19T07:05:22.321Z,9.70
2023-04-19T07:06:24.928Z,9.70
2023-04-19T07:07:27.172Z,9.70
2023-04-19T07:08:42.524Z,9.70
2023-04-19T07:09:50.812Z,9.70
2023-04-19T07:10:55.948Z,9.80
2023-04-19T07:11:58.109Z,9.80
2023-04-19T07:13:00.258Z,9.90
2023-04-19T07:14:05.627Z,9.90
2023-04-19T07:15:11.420Z,10.00
2023-04-19T07:16:15.097Z,10.00
2023-04-19T07:17:18.506Z,10.00
2023-04-19T07:18:20.721Z,10.00
2023-04-19T07:19:22.902Z,10.00
2023-04-19T07:20:26.571Z,10.10
2023-04-19T07:21:33.304Z,10.10
2023-04-19T07:22:35.709Z,10.20
2023-04-19T07:23:37.936Z,10.20
2023-04-19T07:24:41.921Z,10.20
2023-04-19T07:25:44.098Z,10.20
2023-04-19T07:26:46.283Z,10.20
2023-04-19T07:27:48.400Z,10.30
2023-04-19T07:28:50.802Z,10.30
2023-04-19T07:29:53.361Z,10.30
2023-04-19T07:30:55.566Z,10.30
2023-04-19T07:32:00.047Z,10.40
2023-04-19T07:33:04.429Z,10.50
2023-04-19T07:34:06.646Z,10.50
2023-04-19T07:35:09.446Z,10.60
2023-04-19T07:36:13.260Z,10.60
2023-04-19T07:37:15.397Z,10.70
2023-04-19T07:38:17.980Z,10.70
2023-04-19T07:39:20.175Z,10.70
2023-04-19T07:40:28.510Z,10.90
2023-04-19T07:41:30.872Z,10.90
2023-04-19T07:42:34.091Z,10.90
2023-04-19T07:43:37.584Z,11.00
2023-04-19T07:44:41.118Z,11.00
2023-04-19T07:45:46.210Z,11.00
2023-04-19T07:46:50.299Z,11.10
2023-04-19T07:47:52.926Z,11.10
2023-04-19T07:48:55.398Z,11.10
2023-04-19T07:49:58.164Z,11.20
2023-04-19T07:51:09.725Z,11.20
2023-04-19T07:52:13.477Z,11.20
2023-04-19T07:53:16.611Z,11.20
2023-04-19T07:54:22.608Z,11.30
2023-04-19T07:55:25.202Z,11.20
2023-04-19T07:56:27.602Z,11.20
2023-04-19T07:57:29.886Z,11.20
2023-04-19T07:58:35.859Z,11.30
2023-04-19T07:59:43.135Z,11.30
2023-04-19T08:00:46.043Z,11.40
2023-04-19T08:01:50.260Z,11.40
2023-04-19T08:03:06.023Z,11.60
2023-04-19T08:04:11.141Z,11.50
2023-04-19T08:05:15.178Z,11.50
2023-04-19T08:06:22.220Z,11.60
2023-04-19T08:07:30.555Z,11.60
2023-04-19T08:08:34.146Z,11.60
2023-04-19T08:09:39.808Z,11.70
2023-04-19T08:10:47.817Z,11.70
2023-04-19T08:11:50.047Z,11.70
2023-04-19T08:13:05.025Z,11.70
2023-04-19T08:14:32.253Z,11.70
2023-04-19T08:18:30.809Z,11.70
2023-04-19T08:19:52.370Z,11.80
2023-04-19T08:21:41.098Z,11.80
2023-04-19T08:24:01.576Z,11.90
2023-04-19T08:25:36.069Z,12.00
2023-04-19T08:27:12.901Z,12.00
2023-04-19T08:28:29.870Z,12.00
2023-04-19T08:29:36.640Z,12.10
2023-04-19T08:30:42.595Z,12.10
2023-04-19T08:31:53.628Z,12.20
2023-04-19T08:32:59.321Z,12.20
2023-04-19T08:34:07.277Z,12.30
2023-04-19T08:35:20.307Z,12.40
2023-04-19T08:36:36.049Z,12.40
2023-04-19T08:37:43.762Z,12.50
2023-04-19T08:38:51.882Z,12.50
2023-04-19T08:40:01.185Z,12.50
2023-04-19T08:41:05.277Z,12.50
2023-04-19T08:42:28.764Z,12.60
2023-04-19T08:43:39.252Z,12.60
2023-04-19T08:46:02.208Z,12.60
2023-04-19T08:47:15.271Z,12.70
2023-04-19T08:48:43.274Z,12.70
2023-04-19T08:50:11.216Z,12.80
2023-04-19T08:51:23.631Z,12.80
2023-04-19T08:52:28.142Z,12.80
2023-04-19T08:53:36.907Z,12.90
2023-04-19T08:54:45.925Z,13.00
2023-04-19T08:57:25.421Z,13.00
2023-04-19T08:59:11.631Z,13.00
2023-04-19T09:00:38.152Z,13.00
2023-04-19T09:01:45.248Z,13.00
2023-04-19T09:03:02.900Z,13.00
2023-04-19T09:04:34.594Z,13.10
2023-04-19T09:05:40.997Z,13.20
2023-04-19T09:06:50.068Z,13.30
2023-04-19T09:07:52.556Z,13.30
2023-04-19T09:09:45.741Z,13.30
2023-04-19T09:11:14.321Z,13.30
2023-04-19T09:12:33.253Z,13.40
2023-04-19T09:13:44.736Z,13.40
2023-04-19T09:15:10.515Z,13.40
2023-04-19T09:16:29.608Z,13.40
2023-04-19T09:17:46.554Z,13.50
2023-04-19T09:19:24.689Z,13.50
2023-04-19T09:21:05.098Z,13.50
2023-04-19T09:22:18.820Z,13.50
2023-04-19T09:23:23.541Z,13.50
2023-04-19T09:26:19.367Z,13.60
2023-04-19T09:27:25.636Z,13.70
2023-04-19T09:28:28.569Z,13.70
2023-04-19T09:29:31.024Z,13.70
2023-04-19T09:30:40.284Z,13.70
2023-04-19T09:31:58.870Z,13.70
2023-04-19T09:33:01.352Z,13.80
2023-04-19T09:34:16.794Z,13.80
2023-04-19T09:35:18.989Z,13.90
2023-04-19T09:36:29.116Z,14.00
2023-04-19T09:37:51.513Z,14.10
2023-04-19T09:38:53.720Z,14.10
2023-04-19T09:39:56.168Z,14.20
2023-04-19T09:41:08.583Z,14.30
2023-04-19T09:42:10.873Z,14.30
2023-04-19T09:43:53.278Z,14.40
2023-04-19T09:46:06.653Z,14.50
2023-04-19T09:47:23.468Z,14.60
2023-04-19T09:48:26.012Z,14.70
2023-04-19T09:49:45.499Z,14.60
2023-04-19T09:51:03.294Z,14.60
2023-04-19T09:52:10.603Z,14.70
2023-04-19T09:53:14.603Z,14.60
2023-04-19T09:54:20.322Z,14.60
2023-04-19T09:55:27.426Z,14.60
2023-04-19T09:56:31.529Z,14.50
2023-04-19T09:57:35.021Z,14.50
2023-04-19T09:58:50.011Z,14.50
2023-04-19T09:59:53.380Z,14.60
2023-04-19T10:01:10.616Z,14.70
2023-04-19T10:02:18.010Z,14.70
2023-04-19T10:03:22.434Z,14.70
2023-04-19T10:04:38.185Z,14.80
2023-04-19T10:05:52.903Z,15.00
2023-04-19T10:07:19.472Z,15.10
2023-04-19T10:08:21.380Z,15.10
2023-04-19T10:09:30.010Z,15.10
2023-04-19T10:10:45.362Z,15.10
2023-04-19T10:12:02.100Z,15.10
2023-04-19T10:13:20.673Z,15.00
2023-04-19T10:14:27.706Z,15.00
2023-04-19T10:15:49.380Z,15.10
2023-04-19T10:17:00.727Z,15.20
2023-04-19T10:18:08.749Z,15.30
2023-04-19T10:19:16.905Z,15.40
2023-04-19T10:20:25.199Z,15.40
2023-04-19T10:21:29.255Z,15.40
2023-04-19T10:22:31.924Z,15.50
2023-04-19T10:23:34.798Z,15.60
2023-04-19T10:24:37.233Z,15.60
2023-04-19T10:25:39.504Z,15.60
2023-04-19T10:27:13.506Z,15.70
2023-04-19T10:28:17.947Z,15.80
2023-04-19T10:29:54.066Z,15.90
2023-04-19T10:31:04.318Z,15.90
2023-04-19T10:32:07.126Z,15.90
2023-04-19T10:33:09.745Z,15.90
2023-04-19T10:34:14.810Z,16.00
2023-04-19T10:35:21.546Z,16.00
2023-04-19T10:36:29.648Z,16.00
2023-04-19T10:37:32.090Z,16.10
2023-04-19T10:38:39.772Z,15.90
2023-04-19T10:39:43.657Z,16.00
2023-04-19T10:40:57.186Z,16.10
2023-04-19T10:41:59.703Z,16.20
2023-04-19T10:43:20.633Z,16.40
2023-04-19T10:44:28.804Z,16.70
2023-04-19T10:45:37.836Z,16.90
2023-04-19T10:46:41.522Z,17.10
2023-04-19T10:47:44.942Z,17.20
2023-04-19T10:48:58.556Z,17.30
2023-04-19T10:50:03.952Z,17.50
2023-04-19T10:51:14.636Z,17.80
2023-04-19T10:52:29.747Z,18.30
2023-04-19T10:54:03.422Z,19.40
2023-04-19T10:55:08.964Z,20.60
2023-04-19T10:56:17.372Z,21.10
2023-04-19T10:57:19.913Z,21.80
2023-04-19T10:58:23.980Z,22.50
2023-04-19T10:59:32.589Z,23.50
2023-04-19T11:00:38.890Z,24.40
2023-04-19T11:01:44.389Z,25.10
2023-04-19T11:02:47.928Z,25.10
2023-04-19T11:04:03.738Z,25.10
2023-04-19T11:05:18.405Z,25.10
2023-04-19T11:06:28.282Z,25.00
2023-04-19T11:07:46.263Z,25.00
2023-04-19T11:09:23.840Z,25.00
2023-04-19T11:10:33.137Z,25.70
2023-04-19T11:11:36.021Z,26.50
2023-04-19T11:12:42.915Z,26.90
2023-04-19T11:13:47.388Z,26.70
2023-04-19T11:14:56.790Z,26.60
2023-04-19T11:16:08.353Z,25.60
2023-04-19T11:17:19.617Z,24.50
2023-04-19T11:18:21.855Z,23.70
2023-04-19T11:19:24.560Z,22.90
2023-04-19T11:20:33.218Z,23.00
2023-04-19T11:21:40.123Z,22.90
2023-04-19T11:22:45.416Z,22.40
2023-04-19T11:23:49.483Z,22.00
2023-04-19T11:24:55.232Z,21.60
2023-04-19T11:25:58.576Z,21.20
2023-04-19T11:27:01.216Z,20.70
2023-04-19T11:28:03.512Z,20.30
2023-04-19T11:29:08.648Z,19.90
2023-04-19T11:30:14.314Z,19.90
2023-04-19T11:31:18.687Z,19.90
2023-04-19T11:32:23.352Z,20.10
2023-04-19T11:33:27.335Z,20.00
2023-04-19T11:34:29.551Z,20.20
2023-04-19T11:35:32.170Z,20.00
2023-04-19T11:36:37.134Z,20.10
2023-04-19T11:37:40.244Z,19.70
2023-04-19T11:38:46.395Z,19.20
2023-04-19T11:39:48.748Z,18.80
2023-04-19T11:41:02.437Z,19.10
2023-04-19T11:42:05.627Z,21.00
2023-04-19T11:43:08.111Z,22.90
2023-04-19T11:44:17.392Z,24.20
2023-04-19T11:45:30.291Z,25.20
2023-04-19T11:46:33.221Z,26.30
2023-04-19T11:47:47.959Z,26.80
2023-04-19T11:48:52.713Z,25.60
2023-04-19T11:49:56.538Z,25.10
2023-04-19T11:50:59.525Z,24.50
2023-04-19T11:52:06.444Z,23.50
2023-04-19T11:53:13.846Z,22.40
2023-04-19T11:54:21.251Z,21.60
2023-04-19T11:55:24.659Z,21.00
2023-04-19T11:56:27.673Z,20.40
2023-04-19T11:57:35.047Z,19.90
2023-04-19T11:58:43.138Z,19.40
2023-04-19T12:00:04.679Z,19.10
2023-04-19T12:01:09.180Z,18.70
2023-04-19T12:02:12.916Z,18.40
2023-04-19T12:03:17.117Z,18.20
2023-04-19T12:04:21.859Z,18.20
2023-04-19T12:05:24.738Z,18.10
2023-04-19T12:06:28.343Z,18.40
2023-04-19T12:07:30.990Z,19.10
2023-04-19T12:08:34.789Z,20.50
2023-04-19T12:09:37.086Z,22.10
2023-04-19T12:10:55.235Z,23.20
2023-04-19T12:11:58.446Z,23.50
2023-04-19T12:13:21.826Z,23.30
2023-04-19T12:14:24.284Z,22.50
2023-04-19T12:15:41.917Z,22.60
2023-04-19T12:16:45.150Z,22.70
2023-04-19T12:17:57.862Z,22.20
2023-04-19T12:19:11.828Z,21.50
2023-04-19T12:20:28.115Z,20.80
2023-04-19T12:21:34.574Z,20.50
2023-04-19T12:22:36.904Z,20.80
2023-04-19T12:23:39.188Z,21.00
2023-04-19T12:24:42.330Z,21.00
2023-04-19T12:25:46.449Z,20.70
2023-04-19T12:26:56.316Z,20.30
2023-04-19T12:28:00.524Z,19.90
2023-04-19T12:29:06.472Z,19.70
2023-04-19T12:30:09.958Z,19.70
2023-04-19T12:31:12.191Z,19.50
2023-04-19T12:32:19.558Z,19.30
2023-04-19T12:33:24.149Z,19.00
2023-04-19T12:34:28.149Z,18.70
2023-04-19T12:35:30.837Z,18.60
2023-04-19T12:36:33.223Z,18.70
2023-04-19T12:37:37.744Z,18.80
2023-04-19T12:38:49.165Z,19.20
2023-04-19T12:39:57.336Z,19.20
2023-04-19T12:41:03.698Z,19.00
2023-04-19T12:42:07.217Z,19.20
2023-04-19T12:43:09.431Z,20.10
2023-04-19T12:44:11.586Z,21.60
2023-04-19T12:45:14.642Z,22.70
2023-04-19T12:46:16.981Z,22.50
2023-04-19T12:47:23.441Z,22.30
2023-04-19T12:48:25.688Z,23.50
2023-04-19T12:49:29.524Z,24.50
2023-04-19T12:50:31.871Z,25.00
2023-04-19T12:51:34.340Z,25.20
2023-04-19T12:52:36.692Z,25.90
2023-04-19T12:53:38.873Z,26.50
2023-04-19T12:54:41.605Z,26.80
2023-04-19T12:55:47.479Z,26.80
2023-04-19T12:56:50.012Z,26.90
2023-04-19T12:57:52.242Z,26.70
2023-04-19T12:58:54.348Z,26.70
2023-04-19T12:59:56.543Z,27.20
2023-04-19T13:00:58.770Z,27.60
2023-04-19T13:02:01.142Z,28.30
2023-04-19T13:03:03.720Z,28.70
2023-04-19T13:04:07.909Z,29.00
2023-04-19T13:05:12.999Z,29.00
2023-04-19T13:06:16.858Z,29.00
2023-04-19T13:07:19.005Z,29.10
2023-04-19T13:08:28.328Z,28.80
2023-04-19T13:09:39.476Z,28.60
2023-04-19T13:10:41.601Z,28.60
2023-04-19T13:11:43.866Z,28.20
2023-04-19T13:12:45.983Z,27.60
2023-04-19T13:13:48.069Z,27.20
2023-04-19T13:14:52.281Z,27.30
2023-04-19T13:15:54.704Z,27.90
2023-04-19T13:16:56.863Z,28.20
2023-04-19T13:17:59.020Z,27.30
2023-04-19T13:19:01.252Z,26.90
2023-04-19T13:20:04.005Z,27.50
2023-04-19T13:21:08.470Z,27.90
2023-04-19T13:22:11.503Z,28.10
2023-04-19T13:23:13.673Z,28.30
2023-04-19T13:24:16.095Z,28.80
2023-04-19T13:25:18.477Z,28.70
2023-04-19T13:26:20.643Z,29.00
2023-04-19T13:27:22.713Z,29.10
2023-04-19T13:28:24.870Z,29.30
2023-04-19T13:29:27.213Z,29.20
2023-04-19T13:30:29.598Z,29.00
2023-04-19T13:31:31.796Z,29.10
2023-04-19T13:32:34.317Z,28.90
2023-04-19T13:33:36.818Z,28.80
2023-04-19T13:34:40.676Z,28.40
2023-04-19T13:35:42.802Z,28.10
2023-04-19T13:36:46.226Z,27.80
2023-04-19T13:37:48.355Z,27.90
2023-04-19T13:38:50.544Z,28.20
2023-04-19T13:39:53.991Z,28.70
2023-04-19T13:40:59.570Z,29.20
2023-04-19T13:42:02.190Z,29.10
2023-04-19T13:43:04.364Z,28.90
2023-04-19T13:44:06.545Z,28.80
2023-04-19T13:45:09.913Z,28.60
2023-04-19T13:46:11.978Z,28.40
2023-04-19T13:47:14.042Z,28.40
2023-04-19T13:48:16.217Z,28.60
2023-04-19T13:49:18.833Z,28.90
2023-04-19T13:50:21.128Z,29.30
2023-04-19T13:51:23.178Z,29.30
2023-04-19T13:52:26.907Z,29.10
2023-04-19T13:53:29.461Z,28.90
2023-04-19T13:54:31.527Z,28.60
2023-04-19T13:55:33.724Z,28.60
2023-04-19T13:56:36.216Z,28.70
2023-04-19T13:57:38.333Z,28.60
2023-04-19T13:58:40.510Z,28.60
2023-04-19T13:59:42.613Z,28.60
2023-04-19T14:00:44.945Z,28.70
2023-04-19T14:01:47.059Z,28.80
2023-04-19T14:02:52.083Z,28.70
2023-04-19T14:03:55.082Z,28.80
2023-04-19T14:04:59.073Z,28.70
2023-04-19T14:06:01.489Z,28.20
2023-04-19T14:07:03.708Z,27.90
2023-04-19T14:08:07.197Z,27.40
2023-04-19T14:09:09.392Z,26.90
2023-04-19T14:10:11.732Z,26.50
2023-04-19T14:11:13.781Z,26.00
2023-04-19T14:12:16.000Z,25.60
2023-04-19T14:13:18.084Z,25.20
2023-04-19T14:14:20.162Z,24.80
2023-04-19T14:15:23.616Z,24.40
2023-04-19T14:16:30.965Z,23.90
2023-04-19T14:17:33.120Z,23.10
2023-04-19T14:18:35.274Z,22.40
2023-04-19T14:19:38.112Z,21.70
2023-04-19T14:20:40.274Z,21.20
2023-04-19T14:21:42.336Z,20.90
2023-04-19T14:22:45.364Z,20.60
2023-04-19T14:23:49.758Z,20.40
2023-04-19T14:24:52.028Z,20.10